This is the latest recevied weather packets stored in our database for station/object K9UO. If no packets are shown the sender has not sent any weather packets the latest 1 day(s).
| Time | Temp. | Humidity | Pressure | Rain* | Wind** | Luminosity | Snow |
|---|---|---|---|---|---|---|---|
| 1777991443 | 13.89° C | 1% | 1006.9 hPa | 0 mm | 3.13 m/s, 246° | - | - |
| 1777990530 | 13.89° C | 1% | 1006.8 hPa | 0 mm | 3.13 m/s, 232° | - | - |
| 1777989633 | 14.44° C | 1% | 1006.6 hPa | 0 mm | 4.02 m/s, 360° | - | - |
| 1777988722 | 13.89° C | 1% | 1006.3 hPa | 0 mm | 4.47 m/s, 214° | - | - |
| 1777987832 | 13.89° C | 1% | 1006 hPa | 0 mm | 4.02 m/s, 214° | - | - |
| 1777986919 | 13.33° C | 1% | 1006.3 hPa | 0 mm | 3.58 m/s, 360° | - | - |
| 1777986008 | 13.33° C | 1% | 1006.1 hPa | 0 mm | 4.02 m/s, 360° | - | - |
| 1777985106 | 12.78° C | 1% | 1005.6 hPa | 0 mm | 3.58 m/s, 226° | - | - |
| 1777984205 | 12.78° C | 1% | 1005.8 hPa | 0 mm | 3.13 m/s, 205° | - | - |
| 1777983304 | 12.22° C | 1% | 1005.7 hPa | 0 mm | 2.68 m/s, 221° | - | - |
| 1777982477 | 12.22° C | 1% | 1006 hPa | 0 mm | 3.58 m/s, 227° | - | - |
| 1777981558 | 12.22° C | 1% | 1006 hPa | 0 mm | 3.13 m/s, 226° | - | - |
| 1777980651 | 12.22° C | 1% | 1005.7 hPa | 0 mm | 2.24 m/s, 215° | - | - |
| 1777979747 | 12.22° C | 1% | 1005.4 hPa | 0 mm | 2.68 m/s, 214° | - | - |
| 1777978843 | 12.22° C | 1% | 1005.2 hPa | 0 mm | 2.24 m/s, 200° | - | - |
| 1777977938 | 12.22° C | 1% | 1005.3 hPa | 0 mm | 2.24 m/s, 221° | - | - |
| 1777977034 | 12.22° C | 1% | 1004.7 hPa | 0 mm | 1.34 m/s, 227° | - | - |
| 1777976129 | 12.22° C | 1% | 1004.2 hPa | 0 mm | 1.79 m/s, 213° | - | - |
| 1777975226 | 12.22° C | 1% | 1003.9 hPa | 0.25 mm | 1.79 m/s, 199° | - | - |
| 1777974320 | 12.22° C | 1% | 1003.8 hPa | 0.25 mm | 3.13 m/s, 200° | - | - |
| 1777973415 | 12.22° C | 1% | 1003.1 hPa | 0.25 mm | 2.68 m/s, 207° | - | - |
| 1777972522 | 12.22° C | 1% | 1003.5 hPa | 0.76 mm | 2.68 m/s, 195° | - | - |
| 1777971613 | 12.78° C | 1% | 1003.7 hPa | 1.02 mm | 2.68 m/s, 197° | - | - |
| 1777970703 | 12.78° C | 1% | 1004.1 hPa | 2.03 mm | 3.13 m/s, 197° | - | - |
| 1777969858 | 13.33° C | 1% | 1005 hPa | 2.54 mm | 4.02 m/s, 199° | - | - |
* Rain latest hour (hover to see other rain measurements)
** Current wind speed in m/s (hover to see current wind gust speed)